createdAt,value
2017-05-19T00:01:03.289Z,934.2
2017-05-19T00:02:16.333Z,934.23
2017-05-19T00:03:29.372Z,934.19
2017-05-19T00:04:41.781Z,934.15
2017-05-19T00:05:54.683Z,934.11
2017-05-19T00:07:07.579Z,934.07
2017-05-19T00:08:19.986Z,934.02
2017-05-19T00:09:31.414Z,933.93
2017-05-19T00:10:43.829Z,933.86
2017-05-19T00:11:56.927Z,933.82
2017-05-19T00:13:09.334Z,933.74
2017-05-19T00:14:21.263Z,933.7
2017-05-19T00:15:33.195Z,933.67
2017-05-19T00:16:46.093Z,933.62
2017-05-19T00:17:59.053Z,933.68
2017-05-19T00:19:11.959Z,933.73
2017-05-19T00:20:24.370Z,933.79
2017-05-19T00:21:37.271Z,933.81
2017-05-19T00:22:49.881Z,933.79
2017-05-19T00:24:02.788Z,933.76
2017-05-19T00:25:15.692Z,933.74
2017-05-19T00:26:28.588Z,933.7
2017-05-19T00:27:41.002Z,933.64
2017-05-19T00:28:53.908Z,933.66
2017-05-19T00:30:06.804Z,933.64
2017-05-19T00:31:19.708Z,933.7
2017-05-19T00:32:32.124Z,933.71
2017-05-19T00:33:45.226Z,933.77
2017-05-19T00:34:58.150Z,933.69
2017-05-19T00:36:11.051Z,933.71
2017-05-19T00:37:23.960Z,933.66
2017-05-19T00:38:36.949Z,933.64
2017-05-19T00:39:49.932Z,933.5
2017-05-19T00:41:02.419Z,933.45
2017-05-19T00:42:14.908Z,933.35
2017-05-19T00:43:27.890Z,933.39
2017-05-19T00:44:40.391Z,933.44
2017-05-19T00:45:52.891Z,933.47
2017-05-19T00:47:05.393Z,933.51
2017-05-19T00:48:17.893Z,933.49
2017-05-19T00:49:30.401Z,933.5
2017-05-19T00:50:43.398Z,933.52
2017-05-19T00:51:55.900Z,933.54
2017-05-19T00:53:08.400Z,933.53
2017-05-19T00:54:21.396Z,933.54
2017-05-19T00:55:34.399Z,933.58
2017-05-19T00:56:47.401Z,933.63
2017-05-19T00:58:00.396Z,933.64
2017-05-19T00:59:13.396Z,933.68
2017-05-19T01:00:25.899Z,933.64
2017-05-19T01:01:39.101Z,933.66
2017-05-19T01:02:52.102Z,933.64
2017-05-19T01:04:05.101Z,933.6
2017-05-19T01:05:17.602Z,933.63
2017-05-19T01:06:30.604Z,933.64
2017-05-19T01:07:43.601Z,933.63
2017-05-19T01:08:56.600Z,933.6
2017-05-19T01:10:09.594Z,933.62
2017-05-19T01:11:22.588Z,933.59
2017-05-19T01:12:35.215Z,933.61
2017-05-19T01:13:48.138Z,933.65
2017-05-19T01:15:01.059Z,933.62
2017-05-19T01:16:13.975Z,933.59
2017-05-19T01:17:27.094Z,933.62
2017-05-19T01:18:40.015Z,933.64
2017-05-19T01:19:52.939Z,933.61
2017-05-19T01:21:05.370Z,933.59
2017-05-19T01:22:18.286Z,933.56
2017-05-19T01:23:30.226Z,933.58
2017-05-19T01:24:43.151Z,933.54
2017-05-19T01:25:56.075Z,933.55
2017-05-19T01:27:08.996Z,933.57
2017-05-19T01:28:22.102Z,933.55
2017-05-19T01:29:34.407Z,933.59
2017-05-19T01:30:46.706Z,933.58
2017-05-19T01:31:59.006Z,933.61
2017-05-19T01:33:11.304Z,933.6
2017-05-19T01:34:23.602Z,933.6
2017-05-19T01:35:36.382Z,933.55
2017-05-19T01:36:49.158Z,933.52
2017-05-19T01:38:01.943Z,933.5
2017-05-19T01:39:13.586Z,933.48
2017-05-19T01:40:25.883Z,933.46
2017-05-19T01:41:38.185Z,933.43
2017-05-19T01:42:50.963Z,933.45
2017-05-19T01:44:03.277Z,933.46
2017-05-19T01:45:15.827Z,933.47
2017-05-19T01:46:27.643Z,933.52
2017-05-19T01:47:40.433Z,933.52
2017-05-19T01:48:53.216Z,933.51
2017-05-19T01:50:06.206Z,933.5
2017-05-19T01:51:18.503Z,933.46
2017-05-19T01:52:31.290Z,933.45
2017-05-19T01:53:44.077Z,933.5
2017-05-19T01:54:56.868Z,933.46
2017-05-19T01:56:09.949Z,933.43
2017-05-19T01:57:22.246Z,933.33
2017-05-19T01:58:35.027Z,933.29
2017-05-19T01:59:47.330Z,933.27
2017-05-19T02:01:00.120Z,933.27
2017-05-19T02:02:12.903Z,933.27
2017-05-19T02:03:25.680Z,933.25
2017-05-19T02:04:38.470Z,933.3
2017-05-19T02:05:51.249Z,933.29
2017-05-19T02:07:04.345Z,933.24
2017-05-19T02:08:15.679Z,933.23
2017-05-19T02:09:28.458Z,933.22
2017-05-19T02:10:41.239Z,933.24
2017-05-19T02:11:54.217Z,933.25
2017-05-19T02:13:07.020Z,933.27
2017-05-19T02:14:19.942Z,933.28
2017-05-19T02:15:32.859Z,933.25
2017-05-19T02:16:45.774Z,933.24
2017-05-19T02:17:58.939Z,933.27
2017-05-19T02:19:10.876Z,933.23
2017-05-19T02:20:23.304Z,933.17
2017-05-19T02:21:36.225Z,933.21
2017-05-19T02:22:49.393Z,933.19
2017-05-19T02:24:02.314Z,933.23
2017-05-19T02:25:14.249Z,933.24
2017-05-19T02:26:26.182Z,933.26
2017-05-19T02:27:39.101Z,933.24
2017-05-19T02:29:06.067Z,933.24
2017-05-19T02:30:18.986Z,933.16
2017-05-19T02:31:31.414Z,933.17
2017-05-19T02:32:43.856Z,933.15
2017-05-19T02:33:57.022Z,933.19
2017-05-19T02:35:09.946Z,933.21
2017-05-19T02:36:22.371Z,933.22
2017-05-19T02:37:34.799Z,933.15
2017-05-19T02:38:48.016Z,933.11
2017-05-19T02:40:00.938Z,933.12
2017-05-19T02:41:13.369Z,933.02
2017-05-19T02:42:25.801Z,932.99
2017-05-19T02:43:38.723Z,932.96
2017-05-19T02:44:51.163Z,932.91
2017-05-19T02:46:04.090Z,932.85
2017-05-19T02:47:16.519Z,932.86
2017-05-19T02:48:28.944Z,932.76
2017-05-19T02:51:07.849Z,932.65
2017-05-19T02:52:20.772Z,932.58
2017-05-19T02:53:33.687Z,932.52
2017-05-19T02:54:46.859Z,932.5
2017-05-19T02:55:59.780Z,932.47
2017-05-19T02:57:12.698Z,932.43
2017-05-19T02:58:25.594Z,932.41
2017-05-19T02:59:37.899Z,932.39
2017-05-19T03:00:51.069Z,932.34
2017-05-19T03:02:03.990Z,932.33
2017-05-19T03:03:16.421Z,932.29
2017-05-19T03:04:28.357Z,932.28
2017-05-19T03:05:41.531Z,932.28
2017-05-19T03:06:54.452Z,932.29
2017-05-19T03:08:06.883Z,932.27
2017-05-19T03:09:19.316Z,932.22
2017-05-19T03:10:32.238Z,932.22
2017-05-19T03:11:45.209Z,932.22
2017-05-19T03:12:58.148Z,932.29
2017-05-19T03:14:10.091Z,932.27
2017-05-19T03:15:22.522Z,932.29
2017-05-19T03:16:35.202Z,932.23
2017-05-19T03:17:48.121Z,932.19
2017-05-19T03:19:01.044Z,932.13
2017-05-19T03:20:12.985Z,932.08
2017-05-19T03:21:25.903Z,932.08
2017-05-19T03:22:38.861Z,932.02
2017-05-19T03:23:51.781Z,932.03
2017-05-19T03:25:04.699Z,931.98
2017-05-19T03:26:17.130Z,931.94
2017-05-19T03:27:30.289Z,931.81
2017-05-19T03:28:42.586Z,931.76
2017-05-19T03:29:55.413Z,931.72
2017-05-19T03:31:08.198Z,931.73
2017-05-19T03:32:19.529Z,931.73
2017-05-19T03:33:30.866Z,931.67
2017-05-19T03:34:43.645Z,931.7
2017-05-19T03:35:56.423Z,931.73
2017-05-19T03:37:08.726Z,931.7
2017-05-19T03:38:21.506Z,931.68
2017-05-19T03:39:33.809Z,931.7
2017-05-19T03:40:46.585Z,931.64
2017-05-19T03:41:59.364Z,931.64
2017-05-19T03:43:11.205Z,931.62
2017-05-19T03:44:23.886Z,931.66
2017-05-19T03:45:36.808Z,931.59
2017-05-19T03:46:49.726Z,931.55
2017-05-19T03:48:02.639Z,931.53
2017-05-19T03:49:15.063Z,931.53
2017-05-19T03:50:27.984Z,931.5
2017-05-19T03:51:40.905Z,931.42
2017-05-19T03:52:53.822Z,931.4
2017-05-19T03:54:06.738Z,931.36
2017-05-19T03:55:19.658Z,931.36
2017-05-19T03:56:32.577Z,931.29
2017-05-19T03:57:45.490Z,931.34
2017-05-19T03:58:58.408Z,931.28
2017-05-19T04:00:11.329Z,931.24
2017-05-19T04:01:24.015Z,931.16
2017-05-19T04:02:36.072Z,931.17
2017-05-19T04:03:49.135Z,931.2
2017-05-19T04:05:02.196Z,931.19
2017-05-19T04:06:15.258Z,931.17
2017-05-19T04:07:27.820Z,931.12
2017-05-19T04:08:40.878Z,931.08
2017-05-19T04:09:53.946Z,930.97
2017-05-19T04:11:07.014Z,930.96
2017-05-19T04:12:20.326Z,930.92
2017-05-19T04:13:33.388Z,930.87
2017-05-19T04:14:46.446Z,930.85
2017-05-19T04:15:59.508Z,930.81
2017-05-19T04:17:12.061Z,930.84
2017-05-19T04:18:24.617Z,930.74
2017-05-19T04:19:37.681Z,930.81
2017-05-19T04:20:50.744Z,930.79
2017-05-19T04:22:03.800Z,930.89
2017-05-19T04:23:16.157Z,930.91
2017-05-19T04:24:28.716Z,930.96
2017-05-19T04:25:41.773Z,931
2017-05-19T04:26:54.830Z,931.01
2017-05-19T04:28:07.367Z,931.06
2017-05-19T04:29:20.293Z,931.01
2017-05-19T04:30:33.221Z,931.04
2017-05-19T04:31:46.142Z,931.02
2017-05-19T04:32:59.062Z,931.02
2017-05-19T04:34:11.741Z,931.04
2017-05-19T04:35:24.171Z,931.15
2017-05-19T04:36:37.091Z,931.17
2017-05-19T04:37:50.009Z,931.17
2017-05-19T04:39:03.183Z,931.23
2017-05-19T04:40:15.616Z,931.28
2017-05-19T04:41:28.044Z,931.25
2017-05-19T04:42:41.019Z,931.24
2017-05-19T04:43:53.943Z,931.23
2017-05-19T04:45:07.122Z,931.15
2017-05-19T04:46:19.062Z,931.17
2017-05-19T04:47:31.979Z,931.2
2017-05-19T04:48:44.421Z,931.14
2017-05-19T04:49:57.594Z,931.18
2017-05-19T04:51:10.034Z,931.18
2017-05-19T04:52:22.959Z,931.17
2017-05-19T04:53:34.899Z,931.16
2017-05-19T04:54:47.819Z,931.16
2017-05-19T04:56:00.497Z,931.13
2017-05-19T04:57:13.414Z,931.08
2017-05-19T04:58:26.333Z,931.14
2017-05-19T04:59:38.771Z,931.12
2017-05-19T05:00:51.941Z,931.1
2017-05-19T05:02:04.861Z,931.09
2017-05-19T05:03:17.290Z,931.04
2017-05-19T05:04:29.288Z,931.05
2017-05-19T05:05:42.212Z,931.04
2017-05-19T05:06:55.135Z,931.06
2017-05-19T05:08:07.566Z,930.99
2017-05-19T05:09:20.000Z,931.06
2017-05-19T05:10:31.928Z,931.02
2017-05-19T05:11:44.474Z,931.04
2017-05-19T05:12:57.279Z,930.99
2017-05-19T05:14:10.193Z,930.91
2017-05-19T05:15:23.112Z,930.79
2017-05-19T05:16:35.076Z,930.66
2017-05-19T05:17:48.296Z,930.65
2017-05-19T05:19:01.238Z,930.59
2017-05-19T05:20:13.671Z,930.56
2017-05-19T05:21:26.594Z,930.56
2017-05-19T05:22:39.271Z,930.59
2017-05-19T05:23:52.195Z,930.59
2017-05-19T05:25:05.115Z,930.5
2017-05-19T05:26:17.054Z,930.53
2017-05-19T05:27:28.495Z,930.51
2017-05-19T05:28:41.716Z,930.47
2017-05-19T05:29:54.638Z,930.47
2017-05-19T05:31:07.068Z,930.53
2017-05-19T05:32:19.988Z,930.52
2017-05-19T05:33:32.672Z,930.48
2017-05-19T05:34:45.099Z,930.39
2017-05-19T05:35:58.022Z,930.33
2017-05-19T05:37:10.937Z,930.34
2017-05-19T05:38:23.369Z,930.34
2017-05-19T05:39:36.592Z,930.38
2017-05-19T05:40:49.505Z,930.39
2017-05-19T05:42:01.926Z,930.38
2017-05-19T05:43:13.861Z,930.3
2017-05-19T05:44:27.090Z,930.27
2017-05-19T05:45:40.017Z,930.23
2017-05-19T05:46:52.940Z,930.29
2017-05-19T05:48:05.367Z,930.23
2017-05-19T05:49:17.796Z,930.26
2017-05-19T05:50:30.712Z,930.24
2017-05-19T05:51:43.139Z,930.27
2017-05-19T05:52:56.059Z,930.24
2017-05-19T05:54:08.011Z,930.18
2017-05-19T05:55:19.958Z,930.13
2017-05-19T05:56:32.875Z,930.13
2017-05-19T05:57:45.800Z,930.2
2017-05-19T05:58:58.721Z,930.22
2017-05-19T06:00:11.636Z,930.27
2017-05-19T06:01:23.868Z,930.27
2017-05-19T06:02:36.297Z,930.33
2017-05-19T06:03:49.220Z,930.42
2017-05-19T06:05:02.133Z,930.41
2017-05-19T06:06:13.829Z,930.51
2017-05-19T06:07:26.742Z,930.56
2017-05-19T06:08:39.659Z,930.58
2017-05-19T06:09:52.576Z,930.56
2017-05-19T06:11:05.495Z,930.58
2017-05-19T06:12:18.712Z,930.52
2017-05-19T06:13:31.149Z,930.43
2017-05-19T06:14:44.069Z,930.46
2017-05-19T06:15:56.496Z,930.49
2017-05-19T06:17:09.170Z,930.64
2017-05-19T06:18:22.088Z,930.66
2017-05-19T06:19:34.518Z,930.71
2017-05-19T06:20:47.435Z,930.73
2017-05-19T06:22:00.351Z,930.76
2017-05-19T06:23:12.781Z,930.81
2017-05-19T06:24:25.216Z,930.84
2017-05-19T06:25:37.645Z,930.81
2017-05-19T06:26:50.561Z,930.68
2017-05-19T06:28:03.474Z,930.56
2017-05-19T06:29:15.410Z,930.46
2017-05-19T06:30:28.335Z,930.34
2017-05-19T06:31:40.763Z,930.21
2017-05-19T06:32:53.682Z,930.16
2017-05-19T06:34:06.898Z,930.07
2017-05-19T06:35:19.330Z,930.05
2017-05-19T06:36:31.754Z,930.14
2017-05-19T06:37:44.671Z,930.27
2017-05-19T06:38:57.841Z,930.35
2017-05-19T06:40:10.269Z,930.4
2017-05-19T06:41:22.734Z,930.43
2017-05-19T06:42:34.668Z,930.39
2017-05-19T06:43:47.587Z,930.33
2017-05-19T06:45:00.817Z,930.34
2017-05-19T06:46:13.247Z,930.29
2017-05-19T06:47:25.182Z,930.21
2017-05-19T06:48:37.606Z,930.14
2017-05-19T06:49:50.771Z,930.11
2017-05-19T06:51:03.691Z,930.16
2017-05-19T06:52:16.613Z,930.16
2017-05-19T06:53:29.532Z,930.21
2017-05-19T06:54:41.963Z,930.25
2017-05-19T06:55:55.182Z,930.25
2017-05-19T06:57:08.097Z,930.23
2017-05-19T06:58:19.541Z,930.28
2017-05-19T06:59:31.967Z,930.27
2017-05-19T07:00:44.884Z,930.24
2017-05-19T07:01:57.798Z,930.12
2017-05-19T07:03:10.713Z,930.11
2017-05-19T07:04:23.627Z,930.14
2017-05-19T07:05:36.051Z,930.11
2017-05-19T07:06:48.965Z,930.11
2017-05-19T07:08:01.879Z,930.02
2017-05-19T07:09:13.824Z,929.91
2017-05-19T07:10:26.269Z,929.84
2017-05-19T07:11:39.486Z,929.8
2017-05-19T07:12:52.405Z,929.74
2017-05-19T07:14:04.840Z,929.69
2017-05-19T07:15:16.290Z,929.63
2017-05-19T07:16:28.226Z,929.66
2017-05-19T07:17:41.142Z,929.7
2017-05-19T07:18:53.577Z,929.69
2017-05-19T07:20:06.493Z,929.61
2017-05-19T07:21:17.939Z,929.62
2017-05-19T07:22:30.853Z,929.59
2017-05-19T07:23:43.535Z,929.58
2017-05-19T07:24:56.457Z,929.61
2017-05-19T07:26:09.376Z,929.58
2017-05-19T07:27:21.313Z,929.54
2017-05-19T07:28:33.430Z,929.58
2017-05-19T07:29:46.215Z,929.58
2017-05-19T07:30:59.000Z,929.58
2017-05-19T07:32:11.295Z,929.57
2017-05-19T07:33:23.591Z,929.48
2017-05-19T07:34:35.897Z,929.46
2017-05-19T07:35:48.675Z,929.49
2017-05-19T07:37:00.972Z,929.52
2017-05-19T07:38:13.747Z,929.49
2017-05-19T07:39:25.815Z,929.33
2017-05-19T07:40:38.603Z,929.32
2017-05-19T07:41:51.382Z,929.29
2017-05-19T07:43:04.172Z,929.35
2017-05-19T07:44:16.476Z,929.3
2017-05-19T07:45:28.776Z,929.34
2017-05-19T07:46:41.563Z,929.4
2017-05-19T07:47:54.347Z,929.41
2017-05-19T07:49:06.645Z,929.46
2017-05-19T07:50:19.435Z,929.5
2017-05-19T07:51:31.731Z,929.56
2017-05-19T07:52:44.036Z,929.58
2017-05-19T07:53:56.816Z,929.63
2017-05-19T07:55:09.591Z,929.75
2017-05-19T07:56:22.371Z,929.87
2017-05-19T07:57:35.149Z,929.94
2017-05-19T07:58:47.940Z,929.9
2017-05-19T08:00:00.720Z,929.82
2017-05-19T08:01:12.054Z,929.8
2017-05-19T08:02:24.834Z,929.66
2017-05-19T08:03:37.138Z,929.55
2017-05-19T08:04:49.917Z,929.45
2017-05-19T08:06:02.700Z,929.5
2017-05-19T08:07:15.001Z,929.56
2017-05-19T08:08:26.823Z,929.67
2017-05-19T08:09:39.121Z,929.71
2017-05-19T08:10:51.901Z,929.91
2017-05-19T08:12:04.978Z,930.11
2017-05-19T08:13:17.774Z,930.23
2017-05-19T08:14:30.692Z,930.31
2017-05-19T08:15:43.611Z,930.38
2017-05-19T08:16:56.527Z,930.27
2017-05-19T08:18:09.252Z,930.2
2017-05-19T08:19:22.176Z,930.17
2017-05-19T08:20:34.122Z,930.19
2017-05-19T08:21:47.044Z,930.28
2017-05-19T08:22:59.227Z,930.28
2017-05-19T08:24:11.167Z,930.18
2017-05-19T08:25:23.597Z,930.14
2017-05-19T08:26:36.021Z,930.13
2017-05-19T08:27:48.935Z,930.12
2017-05-19T08:29:02.156Z,930.08
2017-05-19T08:30:14.580Z,930
2017-05-19T08:31:26.023Z,930
2017-05-19T08:32:38.451Z,930.01
2017-05-19T08:33:51.367Z,930.05
2017-05-19T08:35:04.304Z,930.03
2017-05-19T08:36:16.241Z,930.05
2017-05-19T08:37:29.216Z,930.12
2017-05-19T08:38:41.773Z,930.09
2017-05-19T08:39:55.084Z,930.11
2017-05-19T08:41:08.145Z,930.13
2017-05-19T08:42:20.702Z,930.13
2017-05-19T08:43:33.759Z,930.09
2017-05-19T08:44:46.323Z,930.13
2017-05-19T08:45:59.386Z,930.13
2017-05-19T08:47:11.450Z,930.16
2017-05-19T08:48:23.513Z,930.2
2017-05-19T08:49:35.570Z,930.24
2017-05-19T08:50:48.380Z,930.27
2017-05-19T08:52:01.438Z,930.29
2017-05-19T08:53:14.500Z,930.34
2017-05-19T08:54:27.560Z,930.39
2017-05-19T08:55:40.122Z,930.47
2017-05-19T08:56:52.677Z,930.47
2017-05-19T08:58:05.731Z,930.54
2017-05-19T08:59:18.778Z,930.44
2017-05-19T09:00:31.812Z,930.33
2017-05-19T09:01:45.152Z,930.14
2017-05-19T09:02:58.205Z,930.28
2017-05-19T09:04:10.757Z,930.38
2017-05-19T09:05:22.803Z,930.19
2017-05-19T09:06:35.346Z,930.15
2017-05-19T09:07:47.392Z,930.13
2017-05-19T09:08:59.991Z,930.18
2017-05-19T09:10:13.034Z,930.24
2017-05-19T09:11:25.627Z,930.27
2017-05-19T09:12:38.916Z,930.26
2017-05-19T09:13:51.960Z,930.28
2017-05-19T09:15:05.004Z,930.26
2017-05-19T09:16:18.041Z,930.27
2017-05-19T09:17:30.581Z,930.27
2017-05-19T09:18:43.619Z,930.34
2017-05-19T09:19:56.664Z,930.32
2017-05-19T09:21:08.704Z,930.34
2017-05-19T09:22:21.750Z,930.34
2017-05-19T09:23:34.594Z,930.36
2017-05-19T09:24:47.645Z,930.44
2017-05-19T09:26:00.683Z,930.42
2017-05-19T09:27:12.723Z,930.46
2017-05-19T09:28:25.575Z,930.53
2017-05-19T09:29:38.117Z,930.54
2017-05-19T09:30:50.658Z,930.44
2017-05-19T09:32:03.697Z,930.35
2017-05-19T09:33:16.234Z,930.26
2017-05-19T09:34:28.775Z,930.22
2017-05-19T09:35:41.813Z,930.24
2017-05-19T09:36:54.856Z,930.26
2017-05-19T09:38:07.394Z,930.29
2017-05-19T09:39:20.253Z,930.27
2017-05-19T09:40:32.845Z,930.3
2017-05-19T09:41:45.390Z,930.29
2017-05-19T09:42:58.432Z,930.36
2017-05-19T09:44:11.493Z,930.41
2017-05-19T09:45:24.302Z,930.47
2017-05-19T09:46:36.852Z,930.56
2017-05-19T09:47:49.771Z,930.57
2017-05-19T09:49:02.686Z,930.52
2017-05-19T09:50:14.630Z,930.41
2017-05-19T09:51:27.591Z,930.35
2017-05-19T09:52:40.505Z,930.29
2017-05-19T09:53:53.427Z,930.15
2017-05-19T09:55:05.856Z,930.1
2017-05-19T09:56:18.526Z,930.11
2017-05-19T09:57:31.445Z,930.08
2017-05-19T09:58:42.890Z,930.01
2017-05-19T09:59:55.315Z,929.99
2017-05-19T10:01:08.231Z,930.01
2017-05-19T10:02:20.167Z,930.06
2017-05-19T10:03:33.082Z,930.08
2017-05-19T10:04:46.060Z,930.11
2017-05-19T10:05:58.487Z,930.12
2017-05-19T10:07:11.402Z,930.23
2017-05-19T10:08:23.831Z,930.29
2017-05-19T10:09:36.747Z,930.23
2017-05-19T10:10:49.663Z,930.17
2017-05-19T10:12:02.834Z,930.21
2017-05-19T10:13:14.768Z,930.21
2017-05-19T10:14:27.686Z,930.19
2017-05-19T10:15:40.609Z,930.22
2017-05-19T10:16:53.524Z,930.22
2017-05-19T10:18:05.707Z,930.24
2017-05-19T10:19:16.661Z,930.23
2017-05-19T10:20:29.095Z,930.26
2017-05-19T10:21:42.018Z,930.35
2017-05-19T10:22:55.075Z,930.31
2017-05-19T10:24:08.136Z,930.31
2017-05-19T10:25:20.193Z,930.32
2017-05-19T10:26:33.251Z,930.33
2017-05-19T10:27:46.303Z,930.31
2017-05-19T10:28:59.606Z,930.41
2017-05-19T10:30:12.652Z,930.4
2017-05-19T10:31:25.693Z,930.34
2017-05-19T10:32:38.733Z,930.33
2017-05-19T10:33:52.028Z,930.37
2017-05-19T10:35:05.070Z,930.41
2017-05-19T10:36:18.109Z,930.33
2017-05-19T10:37:31.206Z,930.35
2017-05-19T10:38:44.249Z,930.31
2017-05-19T10:39:56.846Z,930.25
2017-05-19T10:41:09.887Z,930.21
2017-05-19T10:42:21.934Z,930.18
2017-05-19T10:43:34.476Z,930.11
2017-05-19T10:44:47.514Z,930.11
2017-05-19T10:46:00.609Z,930.11
2017-05-19T10:47:13.156Z,930.06
2017-05-19T10:48:24.704Z,930.1
2017-05-19T10:49:37.252Z,930.12
2017-05-19T10:50:50.543Z,930.11
2017-05-19T10:52:03.583Z,930.12
2017-05-19T10:53:16.121Z,930.13
2017-05-19T10:54:28.161Z,930.14
2017-05-19T10:55:40.201Z,930.14
2017-05-19T10:56:52.612Z,930.16
2017-05-19T10:58:05.506Z,930.13
2017-05-19T10:59:17.924Z,930.08
2017-05-19T11:00:30.825Z,930.1
2017-05-19T11:01:44.026Z,930.06
2017-05-19T11:02:56.922Z,930.08
2017-05-19T11:04:09.330Z,930.04
2017-05-19T11:05:21.737Z,929.99
2017-05-19T11:06:34.159Z,929.9
2017-05-19T11:07:47.057Z,929.92
2017-05-19T11:08:59.963Z,929.9
2017-05-19T11:10:11.882Z,929.91
2017-05-19T11:11:23.797Z,929.87
2017-05-19T11:12:36.358Z,929.88
2017-05-19T11:13:49.269Z,929.79
2017-05-19T11:15:01.679Z,929.77
2017-05-19T11:16:14.089Z,929.82
2017-05-19T11:17:26.556Z,929.91
2017-05-19T11:18:38.476Z,929.94
2017-05-19T11:19:50.884Z,930
2017-05-19T11:21:03.782Z,930.02
2017-05-19T11:22:15.759Z,929.98
2017-05-19T11:23:28.658Z,929.95
2017-05-19T11:24:41.070Z,930.02
2017-05-19T11:25:53.974Z,930.1
2017-05-19T11:27:06.384Z,929.99
2017-05-19T11:28:18.800Z,930.05
2017-05-19T11:29:31.213Z,930.09
2017-05-19T11:30:43.132Z,930.18
2017-05-19T11:31:55.541Z,930.27
2017-05-19T11:33:08.439Z,930.28
2017-05-19T11:34:21.594Z,930.26
2017-05-19T11:35:34.493Z,930.23
2017-05-19T11:36:46.907Z,930.2
2017-05-19T11:37:59.805Z,930.2
2017-05-19T11:39:12.212Z,930.23
2017-05-19T11:40:24.623Z,930.22
2017-05-19T11:41:37.523Z,930.24
2017-05-19T11:42:49.443Z,930.25
2017-05-19T11:44:02.349Z,930.11
2017-05-19T11:45:14.779Z,930.09
2017-05-19T11:46:27.185Z,930.11
2017-05-19T11:47:39.595Z,930.08
2017-05-19T11:48:51.511Z,930.05
2017-05-19T11:50:04.413Z,930.08
2017-05-19T11:51:16.329Z,930.19
2017-05-19T11:52:29.227Z,930.14
2017-05-19T11:53:41.640Z,930.11
2017-05-19T11:54:53.070Z,930.18
2017-05-19T11:56:05.975Z,930.17
2017-05-19T11:57:17.897Z,930.19
2017-05-19T11:58:29.826Z,930.21
2017-05-19T11:59:42.239Z,930.25
2017-05-19T12:00:54.157Z,930.35
2017-05-19T12:02:07.065Z,930.36
2017-05-19T12:03:20.026Z,930.4
2017-05-19T12:04:32.934Z,930.28
2017-05-19T12:05:45.344Z,930.14
2017-05-19T12:06:58.541Z,930.16
2017-05-19T12:08:10.458Z,930.26
2017-05-19T12:09:23.363Z,930.37
2017-05-19T12:10:36.262Z,930.36
2017-05-19T12:11:49.410Z,930.31
2017-05-19T12:13:02.305Z,930.25
2017-05-19T12:14:14.221Z,930.27
2017-05-19T12:15:26.629Z,930.33
2017-05-19T12:16:39.521Z,930.23
2017-05-19T12:17:52.420Z,930.26
2017-05-19T12:19:04.828Z,930.19
2017-05-19T12:20:17.724Z,930.08
2017-05-19T12:21:30.130Z,930.09
2017-05-19T12:22:43.030Z,930.16
2017-05-19T12:23:55.936Z,930.3
2017-05-19T12:25:08.833Z,930.25
2017-05-19T12:26:20.756Z,930.36
2017-05-19T12:27:33.651Z,930.37
2017-05-19T12:28:45.577Z,930.3
2017-05-19T12:29:57.990Z,930.27
2017-05-19T12:31:10.889Z,930.31
2017-05-19T12:32:23.297Z,930.22
2017-05-19T12:33:36.012Z,930.25
2017-05-19T12:34:48.417Z,930.32
2017-05-19T12:36:01.316Z,930.33
2017-05-19T12:37:13.727Z,930.35
2017-05-19T12:38:26.137Z,930.34
2017-05-19T12:39:39.082Z,930.32
2017-05-19T12:40:51.125Z,930.28
2017-05-19T12:42:04.169Z,930.27
2017-05-19T12:43:17.147Z,930.32
2017-05-19T12:44:30.070Z,930.28
2017-05-19T12:45:42.496Z,930.25
2017-05-19T12:46:54.433Z,930.2
2017-05-19T12:48:07.355Z,930.2
2017-05-19T12:49:19.786Z,930.2
2017-05-19T12:50:31.828Z,930.11
2017-05-19T12:51:43.766Z,930.13
2017-05-19T12:52:55.708Z,930.16
2017-05-19T12:54:08.633Z,930.11
2017-05-19T12:56:48.024Z,930.08
2017-05-19T12:58:00.452Z,930.08
2017-05-19T12:59:12.887Z,930.08
2017-05-19T13:00:25.136Z,930.05
2017-05-19T13:01:38.054Z,930.14
2017-05-19T13:02:50.479Z,930.19
2017-05-19T13:04:02.906Z,930.2
2017-05-19T13:05:15.827Z,930.16
2017-05-19T13:06:43.042Z,930.13
2017-05-19T13:07:55.034Z,930.11
2017-05-19T13:09:06.480Z,930.04
2017-05-19T13:10:19.404Z,930.03
2017-05-19T13:11:32.286Z,930.02
2017-05-19T13:12:44.227Z,930.02
2017-05-19T13:13:56.216Z,929.95
2017-05-19T13:15:08.994Z,929.92
2017-05-19T13:16:21.291Z,929.98
2017-05-19T13:17:33.592Z,930.01
2017-05-19T13:18:44.925Z,930.04
2017-05-19T13:19:57.226Z,929.98
2017-05-19T13:21:09.525Z,930.05
2017-05-19T13:22:22.315Z,930.06
2017-05-19T13:23:35.094Z,930.05
2017-05-19T13:24:47.878Z,930.06
2017-05-19T13:26:00.177Z,929.96
2017-05-19T13:27:12.474Z,929.98
2017-05-19T13:28:24.768Z,929.98
2017-05-19T13:29:37.545Z,929.98
2017-05-19T13:30:50.323Z,929.96
2017-05-19T13:32:03.100Z,929.95
2017-05-19T13:33:14.922Z,929.97
2017-05-19T13:34:26.739Z,929.96
2017-05-19T13:35:39.040Z,930
2017-05-19T13:36:51.820Z,929.97
2017-05-19T13:38:04.599Z,929.91
2017-05-19T13:39:17.677Z,929.87
2017-05-19T13:40:29.008Z,929.89
2017-05-19T13:41:41.793Z,929.88
2017-05-19T13:42:54.090Z,929.94
2017-05-19T13:44:06.396Z,929.9
2017-05-19T13:45:18.702Z,929.9
2017-05-19T13:46:31.481Z,929.9
2017-05-19T13:47:44.267Z,929.91
2017-05-19T13:48:57.055Z,930.14
2017-05-19T13:50:08.390Z,930.29
2017-05-19T13:51:20.208Z,930.28
2017-05-19T13:52:32.987Z,930.11
2017-05-19T13:53:45.287Z,930.22
2017-05-19T13:54:57.612Z,930.49
2017-05-19T13:56:10.389Z,930.7
2017-05-19T13:57:23.166Z,930.78
2017-05-19T13:58:35.466Z,930.68
2017-05-19T13:59:48.249Z,930.4
2017-05-19T14:01:00.861Z,930.47
2017-05-19T14:02:13.641Z,930.6
2017-05-19T14:03:25.939Z,930.49
2017-05-19T14:04:38.725Z,930.23
2017-05-19T14:05:50.548Z,930.26
2017-05-19T14:07:03.332Z,930.21
2017-05-19T14:08:15.145Z,930.13
2017-05-19T14:09:27.444Z,930.17
2017-05-19T14:10:40.229Z,930.24
2017-05-19T14:11:53.010Z,930.28
2017-05-19T14:13:05.344Z,930.25
2017-05-19T14:14:17.270Z,930.14
2017-05-19T14:15:29.204Z,929.94
2017-05-19T14:16:41.677Z,929.84
2017-05-19T14:17:54.579Z,929.75
2017-05-19T14:19:06.993Z,929.68
2017-05-19T14:20:19.405Z,929.65
2017-05-19T14:21:31.833Z,929.62
2017-05-19T14:22:43.760Z,929.62
2017-05-19T14:23:55.681Z,929.62
2017-05-19T14:25:08.088Z,929.65
2017-05-19T14:26:20.988Z,929.73
2017-05-19T14:27:32.907Z,929.91
2017-05-19T14:28:45.320Z,930.08
2017-05-19T14:29:57.731Z,930.15
2017-05-19T14:31:10.149Z,930.09
2017-05-19T14:32:22.553Z,929.98
2017-05-19T14:33:35.475Z,929.69
2017-05-19T14:34:48.375Z,929.6
2017-05-19T14:36:00.301Z,929.6
2017-05-19T14:37:13.204Z,929.6
2017-05-19T14:38:26.125Z,929.61
2017-05-19T14:39:38.539Z,929.68
2017-05-19T14:40:51.438Z,929.73
2017-05-19T14:42:04.786Z,929.73
2017-05-19T14:43:17.731Z,929.68
2017-05-19T14:44:30.144Z,929.73
2017-05-19T14:45:43.047Z,929.78
2017-05-19T14:46:55.486Z,929.7
2017-05-19T14:48:09.182Z,929.74
2017-05-19T14:49:21.164Z,930.03
2017-05-19T14:50:34.069Z,930.31
2017-05-19T14:51:46.474Z,930.27
2017-05-19T14:52:58.880Z,930.16
2017-05-19T14:54:10.314Z,930
2017-05-19T14:55:23.223Z,930.02
2017-05-19T14:56:36.169Z,930.06
2017-05-19T14:57:48.584Z,930.12
2017-05-19T14:59:01.505Z,930.15
2017-05-19T15:00:14.229Z,930.1
2017-05-19T15:01:26.655Z,930.06
2017-05-19T15:02:39.086Z,930.04
2017-05-19T15:03:51.513Z,929.87
2017-05-19T15:05:04.431Z,929.82
2017-05-19T15:06:17.594Z,929.72
2017-05-19T15:07:30.516Z,929.65
2017-05-19T15:08:43.435Z,929.59
2017-05-19T15:09:55.422Z,929.62
2017-05-19T15:11:08.149Z,929.62
2017-05-19T15:12:21.071Z,929.59
2017-05-19T15:13:33.018Z,929.66